createdAt,value
2023-05-25T00:01:38.454Z,4.07
2023-05-25T00:04:05.170Z,4.50
2023-05-25T00:06:33.027Z,6.50
2023-05-25T00:08:59.667Z,4.00
2023-05-25T00:11:26.522Z,4.50
2023-05-25T00:13:53.651Z,4.15
2023-05-25T00:16:21.000Z,4.10
2023-05-25T00:18:48.047Z,4.40
2023-05-25T00:21:15.348Z,4.05
2023-05-25T00:23:42.807Z,4.15
2023-05-25T00:26:09.324Z,4.20
2023-05-25T00:28:36.077Z,4.53
2023-05-25T00:31:02.822Z,4.35
2023-05-25T00:33:29.552Z,4.20
2023-05-25T00:35:56.509Z,5.40
2023-05-25T00:38:23.069Z,3.97
2023-05-25T00:40:55.821Z,4.07
2023-05-25T00:43:22.812Z,4.40
2023-05-25T00:45:50.994Z,4.45
2023-05-25T00:48:18.109Z,4.30
2023-05-25T00:50:45.040Z,4.25
2023-05-25T00:53:13.670Z,4.62
2023-05-25T00:56:19.412Z,4.25
2023-05-25T00:58:50.944Z,4.22
2023-05-25T01:01:21.321Z,4.57
2023-05-25T01:03:54.402Z,4.82
2023-05-25T01:06:23.019Z,4.03
2023-05-25T01:08:59.500Z,4.32
2023-05-25T01:11:35.832Z,4.32
2023-05-25T01:14:03.177Z,4.95
2023-05-25T01:16:30.023Z,4.43
2023-05-25T01:18:57.070Z,4.40
2023-05-25T01:21:45.161Z,4.50
2023-05-25T01:27:03.269Z,4.57
2023-05-25T01:29:32.594Z,4.70
2023-05-25T01:31:59.949Z,5.47
2023-05-25T01:34:29.380Z,4.97
2023-05-25T01:36:56.205Z,5.03
2023-05-25T01:39:23.863Z,5.50
2023-05-25T01:41:50.402Z,5.20
2023-05-25T01:44:17.552Z,5.53
2023-05-25T01:46:44.245Z,4.67
2023-05-25T01:49:31.597Z,5.10
2023-05-25T01:52:42.839Z,4.63
2023-05-25T01:55:18.391Z,4.53
2023-05-25T01:57:50.296Z,5.03
2023-05-25T02:00:20.586Z,4.47
2023-05-25T02:02:49.692Z,5.05
2023-05-25T02:05:20.199Z,4.83
2023-05-25T02:07:46.839Z,4.40
2023-05-25T02:10:13.404Z,4.90
2023-05-25T02:12:39.950Z,5.17
2023-05-25T02:15:07.479Z,5.07
2023-05-25T02:17:36.426Z,4.78
2023-05-25T02:20:06.036Z,4.68
2023-05-25T02:22:32.813Z,4.97
2023-05-25T02:24:59.425Z,4.78
2023-05-25T02:27:26.024Z,5.10
2023-05-25T02:29:52.972Z,5.43
2023-05-25T02:32:19.577Z,4.93
2023-05-25T02:34:47.083Z,5.10
2023-05-25T02:37:13.800Z,5.40
2023-05-25T02:39:40.368Z,4.72
2023-05-25T02:42:07.049Z,4.67
2023-05-25T02:44:33.595Z,4.80
2023-05-25T02:47:00.211Z,5.27
2023-05-25T02:49:26.801Z,4.90
2023-05-25T02:51:53.385Z,4.43
2023-05-25T02:54:20.026Z,4.60
2023-05-25T02:56:46.586Z,5.50
2023-05-25T02:59:13.105Z,4.90
2023-05-25T03:01:40.068Z,5.10
2023-05-25T03:04:06.661Z,5.07
2023-05-25T03:06:35.713Z,5.10
2023-05-25T03:09:04.442Z,5.60
2023-05-25T03:11:31.009Z,5.27
2023-05-25T03:13:57.546Z,5.63
2023-05-25T03:16:25.201Z,5.60
2023-05-25T03:18:51.743Z,5.68
2023-05-25T03:21:18.269Z,5.23
2023-05-25T03:23:44.839Z,5.30
2023-05-25T03:26:11.363Z,4.87
2023-05-25T03:28:37.930Z,4.23
2023-05-25T03:31:04.574Z,3.90
2023-05-25T03:33:31.138Z,3.97
2023-05-25T03:35:57.654Z,3.50
2023-05-25T03:38:24.219Z,3.73
2023-05-25T03:40:50.723Z,3.97
2023-05-25T03:43:17.642Z,4.40
2023-05-25T03:45:44.283Z,4.60
2023-05-25T03:48:10.952Z,4.97
2023-05-25T03:50:39.376Z,5.10
2023-05-25T03:53:05.919Z,5.50
2023-05-25T03:55:33.291Z,5.67
2023-05-25T03:57:59.800Z,5.30
2023-05-25T04:00:26.412Z,5.60
2023-05-25T04:02:52.990Z,4.90
2023-05-25T04:05:19.715Z,5.00
2023-05-25T04:07:46.702Z,5.23
2023-05-25T04:10:13.255Z,5.13
2023-05-25T04:12:39.878Z,5.67
2023-05-25T04:15:08.590Z,5.57
2023-05-25T04:17:39.027Z,5.03
2023-05-25T04:20:10.800Z,5.60
2023-05-25T04:22:38.137Z,5.70
2023-05-25T04:25:07.941Z,5.40
2023-05-25T04:27:34.451Z,5.53
2023-05-25T04:30:01.003Z,4.57
2023-05-25T04:32:29.164Z,4.63
2023-05-25T04:34:56.078Z,4.60
2023-05-25T04:37:26.429Z,4.70
2023-05-25T04:39:53.312Z,4.90
2023-05-25T04:42:23.219Z,4.63
2023-05-25T04:44:55.387Z,4.10
2023-05-25T04:47:24.174Z,5.10
2023-05-25T04:49:50.843Z,5.10
2023-05-25T04:52:17.374Z,4.93
2023-05-25T04:54:43.919Z,4.77
2023-05-25T04:57:10.533Z,4.93
2023-05-25T04:59:37.098Z,4.93
2023-05-25T05:02:03.768Z,5.00
2023-05-25T05:04:30.482Z,4.97
2023-05-25T05:06:58.978Z,5.27
2023-05-25T05:09:25.781Z,4.63
2023-05-25T05:11:52.304Z,4.20
2023-05-25T05:14:18.863Z,4.40
2023-05-25T05:16:47.256Z,4.20
2023-05-25T05:19:13.867Z,4.28
2023-05-25T05:21:40.415Z,5.70
2023-05-25T05:24:07.010Z,3.87
2023-05-25T05:26:41.219Z,4.32
2023-05-25T05:29:21.685Z,4.00
2023-05-25T05:31:48.333Z,4.25
2023-05-25T05:34:14.913Z,4.45
2023-05-25T05:36:55.851Z,4.53
2023-05-25T05:39:23.651Z,4.30
2023-05-25T05:41:50.182Z,4.53
2023-05-25T05:44:16.698Z,3.97
2023-05-25T05:46:43.259Z,4.07
2023-05-25T05:49:09.829Z,4.18
2023-05-25T05:51:36.363Z,4.22
2023-05-25T05:54:04.033Z,4.20
2023-05-25T05:56:30.707Z,3.95
2023-05-25T05:58:57.275Z,3.83
2023-05-25T06:01:24.678Z,4.15
2023-05-25T06:03:53.554Z,3.90
2023-05-25T06:06:20.875Z,3.87
2023-05-25T06:08:47.439Z,3.92
2023-05-25T06:11:13.967Z,4.12
2023-05-25T06:13:40.518Z,4.30
2023-05-25T06:16:07.332Z,4.30
2023-05-25T06:18:33.970Z,4.28
2023-05-25T06:21:01.594Z,4.25
2023-05-25T06:23:28.227Z,4.40
2023-05-25T06:25:54.921Z,4.30
2023-05-25T06:28:21.483Z,4.20
2023-05-25T06:30:48.083Z,4.28
2023-05-25T06:33:14.600Z,4.07
2023-05-25T06:35:41.147Z,4.25
2023-05-25T06:38:07.726Z,4.78
2023-05-25T06:40:34.231Z,4.15
2023-05-25T06:43:00.784Z,4.10
2023-05-25T06:45:27.324Z,4.43
2023-05-25T06:47:54.005Z,4.25
2023-05-25T06:50:21.474Z,4.55
2023-05-25T06:52:48.421Z,4.40
2023-05-25T06:55:15.194Z,4.32
2023-05-25T06:57:42.969Z,4.60
2023-05-25T07:00:11.463Z,4.35
2023-05-25T07:02:38.409Z,4.82
2023-05-25T07:05:05.993Z,4.50
2023-05-25T07:07:33.103Z,4.40
2023-05-25T07:10:02.888Z,3.95
2023-05-25T07:12:29.481Z,4.32
2023-05-25T07:14:57.741Z,4.12
2023-05-25T07:17:24.372Z,4.97
2023-05-25T07:19:51.056Z,4.87
2023-05-25T07:22:18.912Z,4.32
2023-05-25T07:24:46.256Z,4.75
2023-05-25T07:27:13.673Z,4.65
2023-05-25T07:29:40.570Z,4.47
2023-05-25T07:32:07.560Z,4.12
2023-05-25T07:34:34.490Z,4.37
2023-05-25T07:37:01.165Z,4.25
2023-05-25T07:39:27.974Z,4.40
2023-05-25T07:41:54.529Z,4.78
2023-05-25T07:44:21.105Z,4.55
2023-05-25T07:46:47.676Z,4.65
2023-05-25T07:49:15.599Z,4.68
2023-05-25T07:51:44.712Z,4.55
2023-05-25T07:54:11.611Z,4.55
2023-05-25T07:56:38.562Z,4.25
2023-05-25T07:59:05.534Z,4.55
2023-05-25T08:01:32.364Z,5.25
2023-05-25T08:03:59.011Z,4.70
2023-05-25T08:06:26.107Z,5.25
2023-05-25T08:08:52.744Z,4.68
2023-05-25T08:11:25.997Z,5.03
2023-05-25T08:13:52.883Z,5.10
2023-05-25T08:16:19.432Z,5.12
2023-05-25T08:18:46.081Z,4.82
2023-05-25T08:21:13.080Z,4.70
2023-05-25T08:23:41.946Z,5.10
2023-05-25T08:26:28.582Z,4.85
2023-05-25T08:29:01.636Z,5.35
2023-05-25T08:31:28.172Z,4.87
2023-05-25T08:33:54.805Z,5.20
2023-05-25T08:36:21.504Z,4.80
2023-05-25T08:38:48.077Z,4.85
2023-05-25T08:41:15.910Z,4.90
2023-05-25T08:43:42.653Z,4.82
2023-05-25T08:46:09.748Z,4.47
2023-05-25T08:48:41.986Z,4.78
2023-05-25T08:51:12.939Z,4.82
2023-05-25T08:53:41.326Z,5.07
2023-05-25T08:56:20.042Z,4.53
2023-05-25T08:59:00.595Z,5.15
2023-05-25T09:01:34.259Z,5.37
2023-05-25T09:04:02.985Z,5.20
2023-05-25T09:06:30.380Z,4.80
2023-05-25T09:08:56.996Z,5.28
2023-05-25T09:11:37.303Z,5.70
2023-05-25T09:14:08.204Z,5.75
2023-05-25T09:16:37.188Z,5.40
2023-05-25T09:19:03.779Z,6.00
2023-05-25T09:21:30.908Z,5.90
2023-05-25T09:23:59.574Z,5.70
2023-05-25T09:26:26.840Z,5.78
2023-05-25T09:28:53.436Z,5.90
2023-05-25T09:31:24.314Z,5.53
2023-05-25T09:33:54.796Z,5.95
2023-05-25T09:36:22.451Z,6.00
2023-05-25T09:38:49.546Z,6.18
2023-05-25T09:41:16.296Z,5.22
2023-05-25T09:43:49.208Z,5.75
2023-05-25T09:46:28.884Z,5.22
2023-05-25T09:48:55.842Z,5.37
2023-05-25T09:51:22.492Z,5.97
2023-05-25T09:53:49.200Z,5.30
2023-05-25T09:56:16.705Z,5.62
2023-05-25T09:58:44.320Z,5.05
2023-05-25T10:01:11.365Z,5.47
2023-05-25T10:03:59.613Z,5.78
2023-05-25T10:06:32.451Z,5.22
2023-05-25T10:09:00.774Z,5.72
2023-05-25T10:11:28.865Z,6.28
2023-05-25T10:13:58.356Z,5.72
2023-05-25T10:16:32.550Z,6.03
2023-05-25T10:19:27.942Z,5.65
2023-05-25T10:23:10.156Z,5.68
2023-05-25T10:25:52.975Z,5.80
2023-05-25T10:28:34.933Z,5.90
2023-05-25T10:31:02.903Z,5.65
2023-05-25T10:36:09.211Z,5.70
2023-05-25T10:38:40.091Z,5.70
2023-05-25T10:41:10.524Z,5.65
2023-05-25T10:43:40.626Z,5.47
2023-05-25T10:46:08.105Z,5.82
2023-05-25T10:48:39.500Z,5.50
2023-05-25T10:51:07.704Z,5.70
2023-05-25T10:53:35.810Z,5.28
2023-05-25T10:56:08.072Z,4.85
2023-05-25T10:58:34.671Z,5.65
2023-05-25T11:01:10.152Z,5.35
2023-05-25T11:04:13.912Z,5.18
2023-05-25T11:07:12.482Z,5.45
2023-05-25T11:09:43.831Z,5.60
2023-05-25T11:12:21.715Z,4.80
2023-05-25T11:15:16.694Z,5.20
2023-05-25T11:18:00.600Z,5.40
2023-05-25T11:20:29.350Z,5.65
2023-05-25T11:22:57.966Z,5.75
2023-05-25T11:25:42.815Z,5.68
2023-05-25T11:28:10.920Z,5.45
2023-05-25T11:30:41.845Z,5.90
2023-05-25T11:33:08.691Z,4.95
2023-05-25T11:35:39.176Z,5.85
2023-05-25T11:38:07.427Z,5.68
2023-05-25T11:40:34.363Z,5.50
2023-05-25T11:43:03.235Z,5.35
2023-05-25T11:45:33.364Z,6.05
2023-05-25T11:48:00.104Z,5.25
2023-05-25T11:50:27.520Z,5.30
2023-05-25T11:52:54.299Z,6.15
2023-05-25T11:55:21.206Z,6.05
2023-05-25T11:57:56.404Z,5.53
2023-05-25T12:00:27.756Z,5.50
2023-05-25T12:02:54.602Z,5.00
2023-05-25T12:05:22.501Z,6.62
2023-05-25T12:07:49.238Z,5.95
2023-05-25T12:10:16.484Z,5.32
2023-05-25T12:12:50.870Z,5.80
2023-05-25T12:15:23.127Z,5.80
2023-05-25T12:17:52.818Z,5.18
2023-05-25T12:20:20.182Z,5.55
2023-05-25T12:22:47.510Z,5.03
2023-05-25T12:25:19.007Z,5.25
2023-05-25T12:27:45.658Z,5.47
2023-05-25T12:30:12.352Z,4.97
2023-05-25T12:33:02.562Z,5.60
2023-05-25T12:35:48.990Z,5.40
2023-05-25T12:38:18.319Z,5.60
2023-05-25T12:40:45.501Z,5.07
2023-05-25T12:43:13.445Z,5.10
2023-05-25T12:45:43.694Z,5.30
2023-05-25T12:48:10.329Z,5.47
2023-05-25T12:50:37.539Z,5.57
2023-05-25T12:53:04.505Z,5.72
2023-05-25T12:55:34.859Z,5.90
2023-05-25T12:58:06.907Z,5.47
2023-05-25T13:00:43.187Z,4.93
2023-05-25T13:03:10.032Z,5.32
2023-05-25T13:05:38.217Z,4.97
2023-05-25T13:08:06.465Z,5.40
2023-05-25T13:10:37.358Z,5.20
2023-05-25T13:13:04.145Z,4.93
2023-05-25T13:15:30.747Z,5.50
2023-05-25T13:17:57.567Z,5.47
2023-05-25T13:20:26.468Z,5.25
2023-05-25T13:22:57.110Z,5.37
2023-05-25T13:25:26.292Z,5.05
2023-05-25T13:27:53.944Z,5.35
2023-05-25T13:30:21.299Z,5.32
2023-05-25T13:32:50.406Z,5.43
2023-05-25T13:35:22.626Z,5.20
2023-05-25T13:37:50.230Z,5.07
2023-05-25T13:40:16.949Z,4.45
2023-05-25T13:42:43.480Z,5.03
2023-05-25T13:45:10.460Z,4.78
2023-05-25T13:47:37.114Z,5.22
2023-05-25T13:50:04.264Z,4.90
2023-05-25T13:52:30.846Z,4.90
2023-05-25T13:54:57.399Z,4.80
2023-05-25T13:57:23.977Z,5.20
2023-05-25T13:59:50.516Z,5.03
2023-05-25T14:02:17.122Z,5.10
2023-05-25T14:04:43.653Z,4.87
2023-05-25T14:07:10.258Z,4.62
2023-05-25T14:09:36.852Z,5.30
2023-05-25T14:12:03.872Z,4.97
2023-05-25T14:14:32.646Z,5.20
2023-05-25T14:17:00.520Z,4.90
2023-05-25T14:19:27.965Z,4.72
2023-05-25T14:22:11.014Z,4.68
2023-05-25T14:24:39.628Z,5.18
2023-05-25T14:27:06.468Z,5.50
2023-05-25T14:29:33.020Z,5.12
2023-05-25T14:31:59.998Z,4.72
2023-05-25T14:34:27.116Z,4.60
2023-05-25T14:36:53.633Z,5.12
2023-05-25T14:39:20.169Z,5.12
2023-05-25T14:41:46.685Z,5.18
2023-05-25T14:44:13.263Z,4.80
2023-05-25T14:46:39.831Z,5.22
2023-05-25T14:49:06.381Z,4.62
2023-05-25T14:51:32.966Z,4.65
2023-05-25T14:54:02.705Z,5.00
2023-05-25T14:56:29.277Z,5.30
2023-05-25T14:58:55.852Z,4.68
2023-05-25T15:01:25.055Z,5.20
2023-05-25T15:03:52.241Z,5.22
2023-05-25T15:06:19.045Z,5.00
2023-05-25T15:08:45.578Z,5.35
2023-05-25T15:11:12.137Z,5.10
2023-05-25T15:13:40.009Z,4.97
2023-05-25T15:16:09.734Z,4.97
2023-05-25T15:18:36.292Z,4.57
2023-05-25T15:21:02.957Z,4.90
2023-05-25T15:23:29.472Z,4.55
2023-05-25T15:25:56.672Z,4.80
2023-05-25T15:28:23.614Z,5.32
2023-05-25T15:30:50.155Z,5.20
2023-05-25T15:33:16.755Z,5.05
2023-05-25T15:35:43.469Z,5.15
2023-05-25T15:38:10.097Z,4.60
2023-05-25T15:40:36.635Z,5.18
2023-05-25T15:43:03.442Z,5.32
2023-05-25T15:45:29.958Z,5.20
2023-05-25T15:47:56.576Z,4.90
2023-05-25T15:50:23.143Z,4.68
2023-05-25T15:52:49.682Z,4.82
2023-05-25T15:55:16.261Z,5.00
2023-05-25T15:57:42.812Z,4.93
2023-05-25T16:00:10.858Z,4.72
2023-05-25T16:02:37.403Z,4.50
2023-05-25T16:05:06.295Z,5.18
2023-05-25T16:07:33.154Z,5.00
2023-05-25T16:09:59.725Z,4.97
2023-05-25T16:12:26.752Z,5.53
2023-05-25T16:14:53.568Z,5.25
2023-05-25T16:17:20.170Z,5.47
2023-05-25T16:19:46.830Z,4.82
2023-05-25T16:22:13.422Z,4.90
2023-05-25T16:24:39.950Z,5.22
2023-05-25T16:27:06.530Z,5.50
2023-05-25T16:29:33.104Z,5.18
2023-05-25T16:31:59.682Z,5.20
2023-05-25T16:34:26.220Z,5.57
2023-05-25T16:36:52.793Z,5.15
2023-05-25T16:39:19.303Z,5.03
2023-05-25T16:41:45.849Z,5.53
2023-05-25T16:44:12.416Z,5.20
2023-05-25T16:46:39.096Z,5.25
2023-05-25T16:49:06.473Z,5.45
2023-05-25T16:51:37.036Z,4.75
2023-05-25T16:54:03.678Z,4.80
2023-05-25T16:56:30.539Z,5.60
2023-05-25T16:58:57.066Z,6.00
2023-05-25T17:01:23.651Z,5.55
2023-05-25T17:03:50.262Z,5.40
2023-05-25T17:06:16.888Z,5.43
2023-05-25T17:08:43.438Z,5.40
2023-05-25T17:11:10.037Z,5.03
2023-05-25T17:13:36.592Z,5.37
2023-05-25T17:16:03.320Z,5.00
2023-05-25T17:18:29.905Z,5.95
2023-05-25T17:20:57.120Z,5.37
2023-05-25T17:23:23.645Z,5.50
2023-05-25T17:25:50.239Z,5.47
2023-05-25T17:28:16.829Z,5.57
2023-05-25T17:30:43.378Z,5.45
2023-05-25T17:33:09.993Z,5.60
2023-05-25T17:35:36.547Z,5.95
2023-05-25T17:38:03.096Z,5.62
2023-05-25T17:40:29.678Z,5.43
2023-05-25T17:42:56.214Z,5.37
2023-05-25T17:45:22.735Z,5.85
2023-05-25T17:47:51.610Z,5.62
2023-05-25T17:50:18.139Z,5.22
2023-05-25T17:52:44.687Z,5.62
2023-05-25T17:55:11.256Z,5.50
2023-05-25T17:57:37.756Z,6.05
2023-05-25T18:00:05.149Z,5.40
2023-05-25T18:02:33.362Z,5.87
2023-05-25T18:05:00.141Z,5.32
2023-05-25T18:07:26.675Z,5.95
2023-05-25T18:09:53.346Z,5.93
2023-05-25T18:12:19.903Z,6.43
2023-05-25T18:14:46.416Z,5.97
2023-05-25T18:17:13.108Z,5.70
2023-05-25T18:19:39.660Z,5.82
2023-05-25T18:22:06.316Z,5.60
2023-05-25T18:24:32.885Z,6.18
2023-05-25T18:27:02.869Z,5.87
2023-05-25T18:29:30.211Z,5.93
2023-05-25T18:31:56.753Z,6.25
2023-05-25T18:34:23.315Z,5.85
2023-05-25T18:36:49.838Z,6.22
2023-05-25T18:39:16.525Z,5.62
2023-05-25T18:41:43.112Z,6.30
2023-05-25T18:44:09.615Z,6.35
2023-05-25T18:46:38.962Z,6.10
2023-05-25T18:49:05.540Z,6.03
2023-05-25T18:51:33.240Z,6.37
2023-05-25T18:53:59.797Z,6.15
2023-05-25T18:56:26.758Z,6.80
2023-05-25T18:58:54.689Z,6.05
2023-05-25T19:01:21.288Z,6.18
2023-05-25T19:03:47.966Z,6.03
2023-05-25T19:06:14.610Z,5.68
2023-05-25T19:08:41.117Z,5.95
2023-05-25T19:11:07.685Z,6.32
2023-05-25T19:13:34.186Z,5.70
2023-05-25T19:16:02.543Z,6.72
2023-05-25T19:18:29.143Z,6.37
2023-05-25T19:20:55.980Z,5.97
2023-05-25T19:23:22.509Z,6.07
2023-05-25T19:25:49.105Z,5.93
2023-05-25T19:28:15.669Z,6.40
2023-05-25T19:30:42.234Z,6.47
2023-05-25T19:33:08.814Z,5.87
2023-05-25T19:35:35.571Z,6.45
2023-05-25T19:38:05.654Z,6.85
2023-05-25T19:40:32.996Z,6.30
2023-05-25T19:42:59.523Z,5.70
2023-05-25T19:45:26.146Z,5.90
2023-05-25T19:47:53.036Z,6.53
2023-05-25T19:50:19.622Z,6.70
2023-05-25T19:52:46.298Z,6.37
2023-05-25T19:55:12.867Z,5.85
2023-05-25T19:57:41.953Z,6.12
2023-05-25T20:00:17.448Z,6.65
2023-05-25T20:02:52.816Z,6.30
2023-05-25T20:05:19.438Z,5.95
2023-05-25T20:07:46.631Z,6.03
2023-05-25T20:10:13.519Z,6.30
2023-05-25T20:12:40.947Z,6.57
2023-05-25T20:15:08.016Z,6.20
2023-05-25T20:17:34.590Z,6.32
2023-05-25T20:20:01.247Z,6.65
2023-05-25T20:22:27.862Z,6.53
2023-05-25T20:24:57.500Z,6.40
2023-05-25T20:27:24.863Z,6.55
2023-05-25T20:29:51.377Z,6.93
2023-05-25T20:32:17.976Z,6.87
2023-05-25T20:34:44.502Z,6.75
2023-05-25T20:37:11.055Z,6.50
2023-05-25T20:39:37.655Z,6.55
2023-05-25T20:42:06.018Z,6.20
2023-05-25T20:44:32.584Z,7.43
2023-05-25T20:46:59.114Z,6.62
2023-05-25T20:49:26.193Z,6.32
2023-05-25T20:51:52.776Z,6.68
2023-05-25T20:54:19.324Z,6.78
2023-05-25T20:56:47.178Z,6.90
2023-05-25T20:59:13.770Z,6.10
2023-05-25T21:01:40.325Z,6.20
2023-05-25T21:04:07.032Z,6.85
2023-05-25T21:06:33.684Z,6.72
2023-05-25T21:09:00.855Z,7.00
2023-05-25T21:11:27.926Z,6.18
2023-05-25T21:13:54.903Z,6.85
2023-05-25T21:16:21.766Z,6.70
2023-05-25T21:18:48.329Z,6.85
2023-05-25T21:21:15.285Z,6.90
2023-05-25T21:23:41.843Z,6.87
2023-05-25T21:26:08.393Z,6.62
2023-05-25T21:28:34.941Z,6.68
2023-05-25T21:31:01.663Z,6.90
2023-05-25T21:33:30.134Z,7.35
2023-05-25T21:35:56.666Z,6.53
2023-05-25T21:38:23.220Z,6.78
2023-05-25T21:40:49.802Z,7.05
2023-05-25T21:43:16.357Z,6.93
2023-05-25T21:45:43.072Z,6.93
2023-05-25T21:48:09.774Z,6.55
2023-05-25T21:50:36.352Z,7.00
2023-05-25T21:53:02.868Z,6.75
2023-05-25T21:55:29.406Z,6.82
2023-05-25T21:57:55.920Z,6.93
2023-05-25T22:00:23.695Z,7.30
2023-05-25T22:02:50.714Z,6.55
2023-05-25T22:05:17.392Z,7.37
2023-05-25T22:07:43.918Z,7.35
2023-05-25T22:10:10.744Z,7.50
2023-05-25T22:12:37.309Z,7.80
2023-05-25T22:15:05.783Z,6.62
2023-05-25T22:17:32.391Z,7.03
2023-05-25T22:20:07.500Z,6.90
2023-05-25T22:22:36.568Z,6.85
2023-05-25T22:25:04.292Z,6.37
2023-05-25T22:27:31.622Z,7.80
2023-05-25T22:29:58.178Z,6.85
2023-05-25T22:32:26.139Z,7.65
2023-05-25T22:34:52.841Z,7.00
2023-05-25T22:37:19.753Z,7.60
2023-05-25T22:39:46.350Z,6.95
2023-05-25T22:42:12.910Z,7.22
2023-05-25T22:44:39.468Z,7.53
2023-05-25T22:47:09.276Z,7.00
2023-05-25T22:49:40.782Z,7.57
2023-05-25T22:52:11.398Z,6.87
2023-05-25T22:54:40.700Z,7.70
2023-05-25T22:57:09.301Z,7.22
2023-05-25T22:59:35.966Z,7.30
2023-05-25T23:02:02.549Z,7.28
2023-05-25T23:04:29.152Z,7.20
2023-05-25T23:06:55.699Z,6.75
2023-05-25T23:09:22.261Z,7.70
2023-05-25T23:11:48.792Z,7.43
2023-05-25T23:14:15.372Z,6.85
2023-05-25T23:16:41.967Z,7.20
2023-05-25T23:19:08.709Z,7.00
2023-05-25T23:21:35.232Z,7.82
2023-05-25T23:24:01.863Z,7.68
2023-05-25T23:26:28.426Z,6.97
2023-05-25T23:28:55.053Z,6.82
2023-05-25T23:31:21.731Z,7.12
2023-05-25T23:33:48.300Z,7.80
2023-05-25T23:36:14.904Z,7.35
2023-05-25T23:38:41.440Z,7.28
2023-05-25T23:41:08.129Z,7.55
2023-05-25T23:43:34.695Z,7.12
2023-05-25T23:46:01.664Z,7.47
2023-05-25T23:48:28.245Z,8.25
2023-05-25T23:50:54.822Z,7.40
2023-05-25T23:53:21.407Z,7.87
2023-05-25T23:55:47.959Z,7.72
2023-05-25T23:58:14.887Z,7.10
